Time;durP1;ratioP1;P1;durP2;ratioP2;P2;SDS_P1;SDS_P2;PMS_P1;PMS_P2;Temp;Humidity;BMP_temperature;BMP_pressure;BME280_temperature;BME280_humidity;BME280_pressure;Samples;Min_cycle;Max_cycle;Signal;HPM_P1;HPM_P2
2022/06/21 00:00:42;;;;;;;9.20;8.40;;;16.10;70.30;;;;;;5058096;28;20485;-46
2022/06/21 00:03:12;;;;;;;10.43;9.43;;;16.00;70.60;;;;;;5044804;28;20464;-46
2022/06/21 00:05:42;;;;;;;11.00;10.00;;;16.00;70.80;;;;;;5062170;28;20468;-46
2022/06/21 00:08:36;;;;;;;10.80;9.80;;;16.00;71.20;;;;;;5056886;28;21190;-46
2022/06/21 00:11:04;;;;;;;10.77;9.77;;;16.00;71.30;;;;;;5036921;28;21121;-47
2022/06/21 00:13:33;;;;;;;10.50;9.33;;;16.00;71.40;;;;;;5058853;28;21150;-47
2022/06/21 00:16:11;;;;;;;11.73;10.53;;;15.90;71.60;;;;;;5054981;28;20465;-46
2022/06/21 00:18:40;;;;;;;10.90;9.90;;;15.90;71.80;;;;;;5047042;28;20460;-46
2022/06/21 00:21:18;;;;;;;11.63;10.10;;;15.90;71.60;;;;;;5051694;28;20475;-46
2022/06/21 00:23:47;;;;;;;12.40;11.20;;;15.80;71.80;;;;;;5059510;28;20573;-46
2022/06/21 00:26:16;;;;;;;12.20;11.20;;;15.80;72.20;;;;;;5059926;28;20457;-46
2022/06/21 00:28:43;;;;;;;11.03;9.93;;;15.80;72.50;;;;;;5058141;28;20560;-46
2022/06/21 00:31:20;;;;;;;17.57;10.90;;;15.70;72.70;;;;;;5043736;28;20580;-46
2022/06/21 00:33:48;;;;;;;12.03;10.93;;;15.70;72.90;;;;;;5057190;28;20876;-46
2022/06/21 00:36:25;;;;;;;13.03;11.57;;;15.70;73.30;;;;;;5059238;28;20460;-46
2022/06/21 00:38:54;;;;;;;13.33;11.97;;;15.70;73.50;;;;;;5057484;28;20449;-46
2022/06/21 00:42:00;;;;;;;11.97;10.87;;;15.70;73.90;;;;;;5055487;28;20468;-46
2022/06/21 00:44:41;;;;;;;12.57;11.37;;;15.80;73.70;;;;;;5058096;28;20878;-46
2022/06/21 00:47:23;;;;;;;13.30;10.30;;;15.70;73.50;;;;;;5058956;28;20480;-46
2022/06/21 00:50:01;;;;;;;12.20;10.90;;;15.70;72.90;;;;;;5047547;28;20576;-46
2022/06/21 00:52:42;;;;;;;13.13;11.63;;;15.60;72.70;;;;;;5056297;28;20535;-46
2022/06/21 00:55:29;;;;;;;12.37;11.37;;;15.60;72.40;;;;;;5060896;28;21061;-46
2022/06/21 00:57:56;;;;;;;12.60;11.27;;;15.50;72.50;;;;;;5040859;28;20506;-46
2022/06/21 01:00:34;;;;;;;12.33;11.00;;;15.50;73.00;;;;;;5056994;28;20489;-46
2022/06/21 01:03:18;;;;;;;12.00;10.83;;;15.50;73.40;;;;;;5041917;28;20943;-46
2022/06/21 01:05:46;;;;;;;12.00;10.40;;;15.50;73.50;;;;;;5062785;28;20475;-46
2022/06/21 01:08:18;;;;;;;13.07;11.23;;;15.40;73.50;;;;;;5061464;28;20970;-46
2022/06/21 01:10:48;;;;;;;14.70;11.50;;;15.40;73.70;;;;;;5045434;28;20518;-46
2022/06/21 01:13:19;;;;;;;13.40;11.70;;;15.40;73.70;;;;;;5046577;28;20458;-46
2022/06/21 01:15:49;;;;;;;12.20;11.13;;;15.40;73.90;;;;;;5058331;28;20487;-46
2022/06/21 01:18:19;;;;;;;13.10;11.50;;;15.40;73.90;;;;;;5063550;28;20454;-46
2022/06/21 01:20:49;;;;;;;12.67;11.30;;;15.40;74.10;;;;;;5065350;28;20468;-46
2022/06/21 01:23:38;;;;;;;12.47;11.27;;;15.30;74.50;;;;;;5030676;28;20469;-46
2022/06/21 01:26:05;;;;;;;13.70;12.37;;;15.40;74.60;;;;;;5059994;28;20458;-46
2022/06/21 01:28:33;;;;;;;12.40;11.23;;;15.40;74.60;;;;;;5060635;28;20482;-46
2022/06/21 01:31:00;;;;;;;12.83;10.40;;;15.40;74.50;;;;;;5060314;28;20578;-46
2022/06/21 01:33:34;;;;;;;13.30;11.90;;;15.30;74.50;;;;;;5058376;28;20548;-46
2022/06/21 01:36:05;;;;;;;12.30;11.10;;;15.40;74.40;;;;;;5060124;28;20498;-46
2022/06/21 01:38:43;;;;;;;11.17;10.17;;;15.40;74.00;;;;;;5043464;28;20561;-46
2022/06/21 01:41:15;;;;;;;11.07;10.07;;;15.40;74.00;;;;;;5050199;28;20506;-46
2022/06/21 01:43:46;;;;;;;11.20;9.97;;;15.40;73.90;;;;;;5047870;28;21061;-46
2022/06/21 01:46:17;;;;;;;13.37;12.00;;;15.40;73.80;;;;;;5062092;28;20469;-46
2022/06/21 01:48:51;;;;;;;12.50;11.33;;;15.30;74.00;;;;;;5045512;28;20464;-46
2022/06/21 01:51:33;;;;;;;13.00;11.70;;;15.30;74.00;;;;;;5045688;28;20483;-46
2022/06/21 01:54:03;;;;;;;12.53;11.33;;;15.30;74.10;;;;;;5047894;28;20454;-46
2022/06/21 01:56:35;;;;;;;13.43;10.47;;;15.30;74.20;;;;;;5062919;28;20458;-46
2022/06/21 01:59:09;;;;;;;12.20;10.90;;;15.30;74.10;;;;;;5065445;28;20969;-46
2022/06/21 02:01:53;;;;;;;10.80;9.80;;;15.30;74.10;;;;;;5058445;28;20466;-46
2022/06/21 02:04:24;;;;;;;10.97;10.07;;;15.30;73.90;;;;;;5063495;28;20844;-45
2022/06/21 02:06:52;;;;;;;12.10;11.00;;;15.30;72.70;;;;;;5030326;28;20883;-45
2022/06/21 02:09:24;;;;;;;12.90;10.33;;;15.30;71.90;;;;;;5064091;28;20844;-46
2022/06/21 02:11:59;;;;;;;11.00;10.00;;;15.30;71.90;;;;;;5064336;28;20525;-46
2022/06/21 02:14:29;;;;;;;12.40;9.87;;;15.20;71.50;;;;;;5061635;28;20453;-46
2022/06/21 02:17:11;;;;;;;11.20;10.10;;;15.20;71.40;;;;;;5063145;28;20465;-46
2022/06/21 02:19:48;;;;;;;10.67;9.67;;;15.10;71.40;;;;;;5065869;28;20872;-46
2022/06/21 02:22:19;;;;;;;13.73;10.57;;;15.10;71.40;;;;;;5060394;28;20825;-46
2022/06/21 02:24:47;;;;;;;12.10;9.67;;;15.00;71.60;;;;;;5068569;28;20499;-46
2022/06/21 02:27:17;;;;;;;14.97;11.60;;;15.00;72.00;;;;;;5057712;28;20455;-47
2022/06/21 02:29:51;;;;;;;12.33;11.10;;;14.90;72.50;;;;;;5062849;28;20466;-47
2022/06/21 02:32:24;;;;;;;12.50;10.57;;;14.90;72.50;;;;;;5046483;28;20500;-47
2022/06/21 02:34:55;;;;;;;10.90;9.90;;;14.90;72.40;;;;;;5047050;28;20585;-48
2022/06/21 02:37:25;;;;;;;13.73;10.43;;;14.90;72.60;;;;;;5042607;28;20954;-48
2022/06/21 02:39:53;;;;;;;10.90;9.90;;;14.80;73.00;;;;;;5061201;28;20453;-48
2022/06/21 02:42:27;;;;;;;12.33;11.00;;;14.80;73.10;;;;;;5051036;28;20450;-48
2022/06/21 02:45:00;;;;;;;14.50;12.20;;;14.70;73.40;;;;;;5057558;28;20515;-48
2022/06/21 02:47:32;;;;;;;13.27;11.23;;;14.70;73.60;;;;;;5064029;28;20959;-48
2022/06/21 02:50:04;;;;;;;11.93;10.93;;;14.60;73.90;;;;;;5042119;28;20846;-47
2022/06/21 02:52:37;;;;;;;12.63;10.40;;;14.70;73.70;;;;;;5045068;28;20453;-47
2022/06/21 02:55:22;;;;;;;11.83;10.73;;;14.60;73.20;;;;;;5062231;28;20457;-46
2022/06/21 02:57:57;;;;;;;12.73;11.20;;;14.60;72.80;;;;;;5061585;28;20454;-48
2022/06/21 03:00:25;;;;;;;12.00;10.90;;;14.60;72.90;;;;;;5039931;28;21383;-47
2022/06/21 03:02:52;;;;;;;11.80;10.80;;;14.60;73.00;;;;;;5059990;28;21038;-48
2022/06/21 03:05:26;;;;;;;12.40;10.67;;;14.60;73.00;;;;;;5057363;28;20453;-48
2022/06/21 03:07:57;;;;;;;12.23;11.03;;;14.50;73.20;;;;;;5041165;28;20458;-48
2022/06/21 03:10:43;;;;;;;11.37;10.37;;;14.50;73.30;;;;;;5044677;28;20541;-48
2022/06/21 03:13:15;;;;;;;12.00;10.70;;;14.50;73.40;;;;;;5059058;28;20466;-48
2022/06/21 03:15:46;;;;;;;14.77;11.60;;;14.50;73.40;;;;;;5057455;28;20457;-48
2022/06/21 03:18:22;;;;;;;11.83;10.70;;;14.50;73.40;;;;;;5045024;28;20546;-48
2022/06/21 03:20:51;;;;;;;13.33;11.93;;;14.50;73.20;;;;;;5060373;28;21127;-48
2022/06/21 03:23:19;;;;;;;12.40;11.30;;;14.50;73.30;;;;;;5060615;28;20498;-48
2022/06/21 03:25:57;;;;;;;12.23;10.97;;;14.50;73.10;;;;;;5043625;28;20542;-48
2022/06/21 03:28:37;;;;;;;13.33;11.97;;;14.50;72.70;;;;;;5058403;28;21084;-48
2022/06/21 03:31:16;;;;;;;12.03;11.03;;;14.40;72.50;;;;;;5056500;28;21005;-48
2022/06/21 03:33:49;;;;;;;12.63;11.47;;;14.30;72.70;;;;;;5043931;28;20468;-48
2022/06/21 03:36:20;;;;;;;13.47;12.17;;;14.30;73.10;;;;;;5046782;28;20512;-48
2022/06/21 03:38:52;;;;;;;13.80;12.07;;;14.30;73.40;;;;;;5044834;28;20462;-48
2022/06/21 03:44:12;;;;;;;11.87;10.80;;;14.30;73.60;;;;;;5060228;28;20453;-48
2022/06/21 03:46:55;;;;;;;13.63;12.23;;;14.30;73.80;;;;;;5060383;28;20824;-48
2022/06/21 03:49:30;;;;;;;14.13;12.07;;;14.30;73.90;;;;;;5042108;28;20991;-48
2022/06/21 03:51:59;;;;;;;13.40;12.10;;;14.20;74.10;;;;;;5058994;28;20568;-48
2022/06/21 03:54:45;;;;;;;16.47;12.30;;;14.30;74.20;;;;;;5059886;28;20454;-48
2022/06/21 03:57:35;;;;;;;14.37;11.43;;;14.30;73.50;;;;;;5049405;28;20454;-48
2022/06/21 04:00:11;;;;;;;13.67;12.37;;;14.20;73.50;;;;;;5056837;28;20477;-48
2022/06/21 04:03:04;;;;;;;13.67;10.00;;;14.20;73.50;;;;;;5042879;28;20993;-48
2022/06/21 04:05:46;;;;;;;12.97;11.67;;;14.30;73.40;;;;;;5059014;28;20919;-48
2022/06/21 04:08:37;;;;;;;12.07;10.97;;;14.20;73.50;;;;;;5060287;28;20482;-48
2022/06/21 04:11:34;;;;;;;12.60;11.30;;;14.30;73.30;;;;;;5057258;28;20496;-48
2022/06/21 04:14:18;;;;;;;13.20;11.73;;;14.30;73.50;;;;;;5056517;28;20552;-48
2022/06/21 04:16:55;;;;;;;12.67;11.47;;;14.30;73.70;;;;;;5056777;28;20536;-48
2022/06/21 04:20:00;;;;;;;14.03;10.87;;;14.30;73.80;;;;;;5043573;28;20492;-48
2022/06/21 04:22:30;;;;;;;12.40;11.20;;;14.30;73.90;;;;;;5057905;28;20540;-48
2022/06/21 04:25:16;;;;;;;11.90;10.80;;;14.30;74.10;;;;;;5051329;28;20533;-48
2022/06/21 04:28:08;;;;;;;11.20;10.23;;;14.30;74.20;;;;;;5044875;28;20545;-48
2022/06/21 04:30:47;;;;;;;13.23;11.70;;;14.40;74.10;;;;;;5062733;28;20448;-48
2022/06/21 04:33:24;;;;;;;17.20;13.27;;;14.40;73.70;;;;;;5063421;28;20449;-48
2022/06/21 04:36:00;;;;;;;13.17;11.97;;;14.40;73.40;;;;;;5050478;28;20479;-48
2022/06/21 04:38:36;;;;;;;14.80;13.23;;;14.40;73.60;;;;;;5052188;28;20962;-48
2022/06/21 04:41:14;;;;;;;13.40;12.07;;;14.50;74.00;;;;;;5063412;28;20457;-48
2022/06/21 04:43:43;;;;;;;13.80;12.40;;;14.50;74.20;;;;;;5062478;28;20540;-48
2022/06/21 04:46:22;;;;;;;15.03;12.60;;;14.50;74.30;;;;;;5060256;28;20845;-48
2022/06/21 04:49:10;;;;;;;14.47;13.00;;;14.50;74.40;;;;;;5060885;28;20449;-48
2022/06/21 04:52:00;;;;;;;14.43;12.93;;;14.50;74.60;;;;;;5062156;28;21077;-48
2022/06/21 04:54:29;;;;;;;14.63;13.30;;;14.60;74.80;;;;;;5024426;28;20472;-48
2022/06/21 04:57:19;;;;;;;16.10;12.97;;;14.60;75.00;;;;;;5063295;28;20464;-48
2022/06/21 04:59:52;;;;;;;14.13;12.73;;;14.70;75.30;;;;;;5060014;28;20607;-47
2022/06/21 05:02:27;;;;;;;15.53;13.83;;;14.70;75.50;;;;;;5058635;28;20895;-48
2022/06/21 05:05:07;;;;;;;16.53;14.70;;;14.70;75.80;;;;;;5041917;28;20954;-48
2022/06/21 05:07:42;;;;;;;14.70;13.20;;;14.80;75.90;;;;;;5060291;28;21368;-48
2022/06/21 05:10:15;;;;;;;16.17;13.70;;;14.90;75.90;;;;;;5062780;28;20836;-48
2022/06/21 05:12:43;;;;;;;15.40;13.70;;;14.90;76.00;;;;;;5048624;28;20525;-48
2022/06/21 05:15:24;;;;;;;14.53;13.07;;;15.00;76.00;;;;;;5062919;28;20468;-48
2022/06/21 05:18:23;;;;;;;14.27;12.73;;;15.00;76.00;;;;;;5060025;28;20852;-48
2022/06/21 05:20:54;;;;;;;14.60;13.30;;;15.00;76.20;;;;;;5043348;28;20838;-47
2022/06/21 05:23:23;;;;;;;15.27;13.23;;;15.10;76.40;;;;;;5053523;28;20787;-47
2022/06/21 05:25:51;;;;;;;14.40;11.50;;;15.10;76.50;;;;;;5061017;28;20458;-48
2022/06/21 05:28:20;;;;;;;12.77;11.57;;;15.20;76.70;;;;;;5060463;28;20488;-48
2022/06/21 05:30:54;;;;;;;11.50;10.40;;;15.30;76.70;;;;;;5044878;28;20461;-48
2022/06/21 05:33:33;;;;;;;17.20;12.00;;;15.30;76.70;;;;;;5058602;28;20508;-48
2022/06/21 05:36:03;;;;;;;12.37;11.17;;;15.40;76.60;;;;;;5059015;28;20519;-48
2022/06/21 05:38:32;;;;;;;10.63;9.63;;;15.40;76.40;;;;;;5059354;28;20462;-48
2022/06/21 05:41:09;;;;;;;10.70;9.60;;;15.60;76.20;;;;;;5043784;28;20461;-48
2022/06/21 05:43:45;;;;;;;13.17;10.10;;;15.60;76.00;;;;;;5059300;28;21024;-48
2022/06/21 05:46:22;;;;;;;11.60;10.40;;;15.70;76.10;;;;;;5059289;28;20558;-48
2022/06/21 05:48:52;;;;;;;10.97;9.87;;;15.80;76.00;;;;;;5046524;28;20543;-48
2022/06/21 05:51:32;;;;;;;11.43;10.23;;;15.80;75.80;;;;;;5042690;28;20497;-47
2022/06/21 05:54:06;;;;;;;14.60;11.77;;;15.90;75.30;;;;;;5052355;28;21400;-47
2022/06/21 05:56:34;;;;;;;13.80;11.40;;;15.90;75.20;;;;;;5050347;28;20480;-47
2022/06/21 05:59:05;;;;;;;12.17;10.20;;;15.90;75.20;;;;;;5056565;28;20523;-47
2022/06/21 06:01:45;;;;;;;13.20;11.70;;;16.00;75.30;;;;;;5058422;28;20454;-47
2022/06/21 06:04:22;;;;;;;12.40;10.17;;;16.00;75.40;;;;;;5060185;28;20462;-48
2022/06/21 06:06:52;;;;;;;13.47;12.17;;;16.10;75.50;;;;;;5061178;28;20904;-48
2022/06/21 06:09:25;;;;;;;13.30;12.00;;;16.20;75.40;;;;;;5058423;28;21176;-48
2022/06/21 06:12:00;;;;;;;13.00;11.03;;;16.40;75.10;;;;;;5020986;28;20486;-48
2022/06/21 06:14:33;;;;;;;12.53;11.33;;;16.50;74.80;;;;;;5060661;28;20453;-48
2022/06/21 06:17:05;;;;;;;14.37;12.70;;;16.50;74.70;;;;;;5046058;28;20473;-48
2022/06/21 06:19:38;;;;;;;14.80;11.70;;;16.40;74.70;;;;;;5061280;28;20529;-48
2022/06/21 06:22:05;;;;;;;15.03;11.40;;;16.40;74.50;;;;;;5063713;28;20834;-48
2022/06/21 06:24:46;;;;;;;12.97;10.70;;;16.40;74.50;;;;;;5063929;28;20470;-48
2022/06/21 06:27:45;;;;;;;12.83;11.00;;;16.50;74.50;;;;;;5061285;28;20458;-48
2022/06/21 06:30:24;;;;;;;14.20;10.40;;;16.70;73.80;;;;;;5046357;28;20507;-47
2022/06/21 06:33:12;;;;;;;11.83;9.70;;;16.80;73.70;;;;;;5059846;28;20511;-47
2022/06/21 06:35:40;;;;;;;14.93;11.47;;;16.90;73.40;;;;;;5061742;28;20450;-48
2022/06/21 06:38:15;;;;;;;11.80;10.40;;;17.10;72.80;;;;;;5064381;28;21299;-48
2022/06/21 06:40:48;;;;;;;30.20;11.93;;;17.10;72.40;;;;;;5059063;28;20489;-48
2022/06/21 06:43:49;;;;;;;14.10;11.27;;;17.20;71.90;;;;;;5063249;28;20526;-48
2022/06/21 06:46:26;;;;;;;13.03;10.13;;;17.30;71.80;;;;;;5039576;28;20454;-48
2022/06/21 06:49:18;;;;;;;15.60;10.10;;;17.40;71.50;;;;;;5061042;28;20461;-48
2022/06/21 06:52:03;;;;;;;15.20;11.77;;;17.50;71.50;;;;;;5043817;28;20490;-46
2022/06/21 06:54:40;;;;;;;13.40;10.90;;;17.70;70.70;;;;;;5067454;28;21019;-45
2022/06/21 06:57:22;;;;;;;13.13;11.83;;;17.80;70.30;;;;;;5067789;28;20438;-45
2022/06/21 06:59:49;;;;;;;14.30;12.27;;;17.90;69.90;;;;;;5064967;28;21286;-45
2022/06/21 07:02:22;;;;;;;17.10;12.80;;;17.90;69.70;;;;;;5060689;28;20450;-45
2022/06/21 07:05:22;;;;;;;15.57;12.70;;;18.00;69.30;;;;;;5067144;28;20469;-45
2022/06/21 07:07:52;;;;;;;14.37;12.87;;;18.20;69.40;;;;;;5050490;28;20555;-45
2022/06/21 07:10:24;;;;;;;12.83;11.23;;;18.40;69.10;;;;;;5063276;28;20462;-45
2022/06/21 07:12:53;;;;;;;13.97;10.90;;;18.50;68.10;;;;;;5067337;28;20491;-45
2022/06/21 07:15:32;;;;;;;13.50;12.10;;;18.70;68.00;;;;;;5067606;28;21244;-45
2022/06/21 07:17:59;;;;;;;21.17;13.50;;;18.80;67.40;;;;;;5062164;28;20493;-45
2022/06/21 07:20:31;;;;;;;12.50;10.93;;;18.90;67.30;;;;;;5067494;28;20819;-45
2022/06/21 07:22:59;;;;;;;14.43;11.40;;;19.10;67.00;;;;;;5067212;28;20457;-45
2022/06/21 07:25:28;;;;;;;15.83;12.17;;;19.30;66.50;;;;;;5046586;28;20588;-45
2022/06/21 07:28:00;;;;;;;12.67;11.37;;;19.40;65.90;;;;;;5063119;28;20489;-45
2022/06/21 07:30:38;;;;;;;16.63;12.27;;;19.60;65.40;;;;;;5061153;28;20530;-45
2022/06/21 07:33:16;;;;;;;16.00;11.53;;;19.80;64.70;;;;;;5059966;28;20478;-45
2022/06/21 07:35:55;;;;;;;11.83;9.13;;;19.90;64.00;;;;;;5044837;28;20458;-45
2022/06/21 07:38:59;;;;;;;15.67;9.67;;;20.00;63.50;;;;;;5068508;28;20478;-45
2022/06/21 07:41:40;;;;;;;16.13;9.33;;;20.30;62.60;;;;;;5062619;28;20453;-45
2022/06/21 07:44:29;;;;;;;10.27;8.70;;;20.40;62.20;;;;;;5066348;28;20493;-45
2022/06/21 07:47:10;;;;;;;11.17;9.50;;;20.60;61.70;;;;;;5058515;28;20458;-45
2022/06/21 07:49:54;;;;;;;12.07;9.10;;;20.80;61.00;;;;;;5064936;28;20464;-45
2022/06/21 07:52:29;;;;;;;10.97;9.10;;;21.00;60.30;;;;;;5063530;28;20519;-45
2022/06/21 07:54:58;;;;;;;9.87;8.53;;;21.00;60.00;;;;;;5063127;28;20454;-45
2022/06/21 07:57:35;;;;;;;9.93;7.90;;;21.20;59.80;;;;;;5065116;28;20549;-45
2022/06/21 08:00:12;;;;;;;10.47;7.93;;;21.30;59.90;;;;;;5063468;28;20477;-45
2022/06/21 08:08:55;;;;;;;11.10;6.80;;;21.90;57.40;;;;;;5066230;28;20939;-45
2022/06/21 08:11:28;;;;;;;15.73;9.77;;;22.10;56.80;;;;;;5067258;28;20516;-45
2022/06/21 08:13:55;;;;;;;8.97;8.07;;;22.20;56.10;;;;;;5065760;28;20474;-45
2022/06/21 08:16:27;;;;;;;12.23;11.00;;;22.20;55.90;;;;;;5065684;28;20553;-45
2022/06/21 08:19:25;;;;;;;8.00;7.20;;;22.30;56.00;;;;;;5050273;28;20461;-45
2022/06/21 08:21:58;;;;;;;11.27;7.20;;;22.50;54.80;;;;;;5044863;28;20458;-45
2022/06/21 08:24:39;;;;;;;11.63;6.93;;;22.60;54.30;;;;;;5051470;28;20994;-45
2022/06/21 08:27:17;;;;;;;8.93;6.53;;;22.60;54.00;;;;;;5044405;28;20506;-45
2022/06/21 08:29:53;;;;;;;8.40;5.17;;;22.70;53.60;;;;;;5050435;28;20543;-45
2022/06/21 08:32:24;;;;;;;6.17;5.47;;;22.80;53.90;;;;;;5061402;28;20515;-45
2022/06/21 08:34:56;;;;;;;5.77;4.80;;;22.90;53.10;;;;;;5063126;28;20486;-45
2022/06/21 08:37:49;;;;;;;7.63;4.80;;;23.00;52.20;;;;;;5067354;28;20529;-45
2022/06/21 08:40:24;;;;;;;10.33;5.20;;;23.10;52.30;;;;;;5066608;28;20469;-45
2022/06/21 08:43:25;;;;;;;7.00;5.17;;;23.30;52.00;;;;;;5061441;28;20579;-45
2022/06/21 08:46:13;;;;;;;6.30;4.20;;;23.40;51.00;;;;;;5049374;28;20498;-45
2022/06/21 08:48:52;;;;;;;7.40;4.20;;;23.40;50.90;;;;;;5062991;28;20523;-45
2022/06/21 08:51:30;;;;;;;5.73;4.40;;;23.40;49.80;;;;;;5064463;28;20460;-45
2022/06/21 08:54:06;;;;;;;5.60;5.00;;;23.20;50.20;;;;;;5062172;28;20486;-45
2022/06/21 08:56:44;;;;;;;9.80;5.30;;;23.10;50.50;;;;;;5065797;28;20468;-46
2022/06/21 08:59:36;;;;;;;4.97;4.47;;;23.00;50.50;;;;;;5055598;28;22128;-46
2022/06/21 09:02:21;;;;;;;4.57;4.17;;;22.80;50.80;;;;;;5060510;28;20500;-46
2022/06/21 09:05:13;;;;;;;8.30;4.80;;;22.80;51.50;;;;;;5062776;28;20462;-46
2022/06/21 09:08:14;;;;;;;5.30;4.80;;;22.70;52.10;;;;;;5047370;28;20865;-46
2022/06/21 09:11:02;;;;;;;6.20;5.60;;;22.70;52.80;;;;;;5065073;28;20458;-46
2022/06/21 09:13:42;;;;;;;4.63;4.07;;;22.60;52.70;;;;;;5062277;28;20534;-46
2022/06/21 09:16:36;;;;;;;4.70;3.90;;;22.70;52.90;;;;;;5062621;28;20560;-47
2022/06/21 09:19:18;;;;;;;10.20;5.10;;;22.70;53.40;;;;;;5069993;28;20452;-46
2022/06/21 09:22:07;;;;;;;4.20;3.73;;;22.90;52.60;;;;;;5066176;28;20457;-46
2022/06/21 09:24:42;;;;;;;4.93;3.50;;;23.10;51.90;;;;;;5067693;28;21223;-46
2022/06/21 09:27:40;;;;;;;4.50;3.60;;;23.40;51.10;;;;;;5068405;28;20726;-46
2022/06/21 09:30:15;;;;;;;3.43;3.10;;;23.60;49.50;;;;;;5068928;28;20488;-46
2022/06/21 09:33:27;;;;;;;5.00;3.40;;;23.80;48.60;;;;;;5072562;28;20521;-46
2022/06/21 09:36:20;;;;;;;5.23;2.97;;;24.00;48.50;;;;;;4991040;28;20491;-47
2022/06/21 09:39:03;;;;;;;5.70;3.83;;;24.40;47.70;;;;;;4977078;28;20449;-46
2022/06/21 09:41:40;;;;;;;3.40;2.93;;;24.60;47.50;;;;;;5038818;28;20483;-46
2022/06/21 09:44:17;;;;;;;5.23;3.90;;;24.80;46.20;;;;;;5063812;28;20478;-47
2022/06/21 09:47:06;;;;;;;4.43;3.10;;;25.00;45.50;;;;;;5070329;28;20472;-47
2022/06/21 09:49:50;;;;;;;3.50;3.20;;;25.30;45.50;;;;;;5061012;28;20465;-46
2022/06/21 09:53:19;;;;;;;4.23;3.80;;;25.50;44.70;;;;;;5067299;28;20583;-46
2022/06/21 09:55:51;;;;;;;3.83;3.53;;;25.70;44.80;;;;;;4989732;28;20620;-47
2022/06/21 09:58:31;;;;;;;3.67;3.27;;;25.50;44.40;;;;;;4975716;28;20989;-47
2022/06/21 10:01:06;;;;;;;3.37;3.13;;;25.40;44.90;;;;;;5023180;28;21001;-47
2022/06/21 10:03:42;;;;;;;4.03;3.03;;;25.40;45.00;;;;;;5057442;28;20523;-46
2022/06/21 10:06:35;;;;;;;3.80;3.40;;;25.30;44.90;;;;;;5062778;28;20510;-47
2022/06/21 10:09:20;;;;;;;4.47;4.17;;;25.30;45.00;;;;;;5049906;28;20526;-47
2022/06/21 10:11:47;;;;;;;5.33;3.10;;;25.20;45.10;;;;;;5067588;28;20490;-47
2022/06/21 10:14:17;;;;;;;4.00;2.90;;;25.10;45.10;;;;;;5066677;28;20528;-46
2022/06/21 10:17:15;;;;;;;5.50;3.00;;;25.10;45.40;;;;;;5068316;28;20469;-47
2022/06/21 10:20:23;;;;;;;7.87;4.47;;;25.10;45.50;;;;;;5062173;28;20543;-47
2022/06/21 10:22:59;;;;;;;6.40;3.97;;;25.00;46.00;;;;;;5066402;28;20912;-47
2022/06/21 10:25:45;;;;;;;4.27;2.70;;;24.90;45.70;;;;;;5065014;28;20460;-47
2022/06/21 10:28:42;;;;;;;4.80;3.57;;;24.80;45.60;;;;;;5068635;28;20452;-46
2022/06/21 10:31:15;;;;;;;3.97;3.33;;;24.60;46.00;;;;;;5055836;28;20553;-47
2022/06/21 10:34:00;;;;;;;3.87;3.03;;;24.60;45.80;;;;;;5068944;28;20576;-46
2022/06/21 10:36:55;;;;;;;13.17;5.07;;;24.70;45.80;;;;;;5070185;28;20572;-46
2022/06/21 10:40:00;;;;;;;3.93;2.90;;;24.80;46.00;;;;;;5067081;28;20479;-46
2022/06/21 10:42:47;;;;;;;3.30;3.00;;;25.00;45.90;;;;;;5070229;28;20950;-47
2022/06/21 10:45:39;;;;;;;4.53;3.07;;;25.20;44.80;;;;;;5068982;28;21010;-46
2022/06/21 10:48:38;;;;;;;3.93;2.70;;;25.30;44.20;;;;;;5066265;28;20528;-47
2022/06/21 10:51:33;;;;;;;3.63;2.60;;;25.40;43.40;;;;;;5058581;28;20484;-47
2022/06/21 10:54:44;;;;;;;6.30;3.50;;;25.40;43.60;;;;;;5069027;28;20480;-47
2022/06/21 10:57:52;;;;;;;4.60;3.27;;;25.50;43.10;;;;;;4950556;28;20540;-47
2022/06/21 11:03:45;;;;;;;4.00;3.20;;;25.30;44.20;;;;;;5067448;28;20886;-47
2022/06/21 11:06:21;;;;;;;4.13;3.33;;;25.30;44.30;;;;;;5064429;28;20556;-45
2022/06/21 11:08:56;;;;;;;10.40;3.70;;;25.30;44.50;;;;;;5046590;28;20530;-46
2022/06/21 11:11:52;;;;;;;7.20;3.20;;;25.30;44.60;;;;;;5047845;28;20535;-45
2022/06/21 11:14:38;;;;;;;4.10;2.60;;;25.20;44.10;;;;;;5052663;28;20492;-45
2022/06/21 11:17:41;;;;;;;3.10;2.57;;;25.10;43.20;;;;;;5058806;28;20460;-46
2022/06/21 11:20:29;;;;;;;10.20;4.33;;;25.10;44.30;;;;;;5055411;28;20461;-46
2022/06/21 11:23:15;;;;;;;5.70;3.10;;;25.00;44.70;;;;;;5059281;28;20565;-45
2022/06/21 11:26:10;;;;;;;7.97;2.93;;;24.90;44.50;;;;;;5058195;28;20473;-45
2022/06/21 11:29:24;;;;;;;3.83;2.63;;;24.80;44.70;;;;;;5049885;28;20464;-45
2022/06/21 11:32:09;;;;;;;6.13;2.87;;;24.80;44.20;;;;;;5059841;28;20898;-45
2022/06/21 11:35:07;;;;;;;8.83;4.80;;;24.80;44.10;;;;;;5062850;28;20567;-45
2022/06/21 11:38:25;;;;;;;9.10;5.17;;;24.70;44.10;;;;;;5057937;28;20488;-45
2022/06/21 11:40:58;;;;;;;5.50;3.30;;;24.70;44.40;;;;;;5001157;28;21298;-45
2022/06/21 11:43:53;;;;;;;3.43;3.13;;;24.60;44.40;;;;;;5056827;28;20458;-45
2022/06/21 11:46:28;;;;;;;3.20;2.87;;;24.60;44.60;;;;;;5055875;28;20453;-45
2022/06/21 11:49:16;;;;;;;4.20;3.20;;;24.60;45.20;;;;;;5058245;28;20988;-45
2022/06/21 11:52:10;;;;;;;3.57;3.20;;;24.70;45.50;;;;;;5062741;28;20891;-45
2022/06/21 11:54:46;;;;;;;8.70;2.97;;;24.70;44.70;;;;;;5037371;28;20489;-45
2022/06/21 11:57:43;;;;;;;8.50;3.53;;;24.70;45.10;;;;;;5059604;28;21044;-46
2022/06/21 12:00:30;;;;;;;3.27;2.77;;;24.80;44.40;;;;;;5056101;28;21021;-46
2022/06/21 12:02:59;;;;;;;7.40;3.10;;;24.80;44.70;;;;;;5059130;28;20822;-45
2022/06/21 12:05:56;;;;;;;4.63;3.13;;;24.80;44.60;;;;;;5060167;28;20558;-45
2022/06/21 12:09:09;;;;;;;8.10;3.83;;;24.90;45.00;;;;;;5058749;28;20944;-45
2022/06/21 12:11:57;;;;;;;5.60;3.30;;;25.00;44.30;;;;;;4997007;28;20445;-45
2022/06/21 12:14:33;;;;;;;5.50;3.10;;;25.00;43.40;;;;;;5057652;28;20493;-45
2022/06/21 12:17:05;;;;;;;4.00;2.50;;;24.90;43.40;;;;;;5057153;28;20564;-45
2022/06/21 12:19:38;;;;;;;3.00;2.10;;;24.90;42.80;;;;;;5056772;28;20487;-45
2022/06/21 12:22:15;;;;;;;2.70;1.87;;;24.90;41.60;;;;;;5058451;28;20462;-45
2022/06/21 12:24:42;;;;;;;2.37;2.07;;;24.90;40.80;;;;;;5053945;28;20733;-45
2022/06/21 12:27:11;;;;;;;2.03;1.93;;;25.00;40.40;;;;;;5050845;28;20461;-45
2022/06/21 12:29:38;;;;;;;2.30;2.10;;;25.00;41.30;;;;;;5034140;28;21003;-44
2022/06/21 12:32:10;;;;;;;2.50;2.30;;;25.10;41.40;;;;;;5037143;28;21207;-45
2022/06/21 12:34:42;;;;;;;2.60;2.10;;;25.10;42.00;;;;;;5057712;28;20595;-45
2022/06/21 12:37:34;;;;;;;2.97;2.53;;;25.10;42.20;;;;;;5060715;28;20461;-45
2022/06/21 12:40:06;;;;;;;3.00;2.57;;;25.10;41.90;;;;;;5059880;28;20553;-45
2022/06/21 12:42:54;;;;;;;2.90;2.50;;;25.20;42.20;;;;;;5053060;28;20477;-45
2022/06/21 12:45:27;;;;;;;2.93;2.40;;;25.20;42.60;;;;;;5055989;28;20459;-45
2022/06/21 12:48:13;;;;;;;2.40;2.20;;;25.30;42.00;;;;;;5056697;28;21068;-45
2022/06/21 12:50:57;;;;;;;2.10;2.00;;;25.30;41.60;;;;;;5046269;28;20453;-45
2022/06/21 12:53:47;;;;;;;3.73;2.37;;;25.40;41.40;;;;;;5063340;28;20489;-45
2022/06/21 12:56:26;;;;;;;3.30;2.37;;;25.40;41.30;;;;;;5064607;28;20915;-45
2022/06/21 12:59:18;;;;;;;5.30;2.67;;;25.40;40.70;;;;;;5060143;28;20471;-45
2022/06/21 13:02:14;;;;;;;2.33;2.13;;;25.40;40.90;;;;;;5061576;28;20548;-45
2022/06/21 13:04:51;;;;;;;3.53;2.30;;;25.40;41.20;;;;;;5063072;28;20458;-45
2022/06/21 13:07:34;;;;;;;3.67;2.20;;;25.40;41.50;;;;;;5041281;28;21182;-45
2022/06/21 13:10:13;;;;;;;5.13;2.30;;;25.50;41.90;;;;;;5059490;28;20462;-45
2022/06/21 13:13:08;;;;;;;2.63;2.30;;;25.60;41.60;;;;;;5067934;28;20478;-45
2022/06/21 13:15:54;;;;;;;3.00;2.23;;;25.70;42.00;;;;;;5062085;28;20486;-45
2022/06/21 13:18:42;;;;;;;3.53;2.30;;;25.80;41.30;;;;;;5050868;28;20482;-45
2022/06/21 13:21:30;;;;;;;4.43;2.63;;;25.80;41.60;;;;;;5047979;28;20969;-45
2022/06/21 13:24:17;;;;;;;4.30;2.50;;;25.90;41.20;;;;;;5058439;28;20465;-45
2022/06/21 13:27:00;;;;;;;5.10;2.40;;;25.90;40.80;;;;;;5060564;28;20560;-45
2022/06/21 13:29:29;;;;;;;2.57;2.33;;;26.00;40.70;;;;;;5062901;28;20461;-45
2022/06/21 13:32:02;;;;;;;2.27;2.07;;;26.00;40.50;;;;;;5063848;28;20485;-45
2022/06/21 13:34:51;;;;;;;4.30;2.17;;;26.00;40.50;;;;;;5058459;28;20496;-45
2022/06/21 13:37:36;;;;;;;3.97;2.40;;;26.00;40.80;;;;;;5055590;28;20461;-45
2022/06/21 13:40:21;;;;;;;2.33;2.13;;;26.00;40.40;;;;;;5066269;28;20448;-45
2022/06/21 13:43:33;;;;;;;1.90;1.80;;;26.00;40.70;;;;;;5062549;28;20493;-45
2022/06/21 13:46:24;;;;;;;4.30;2.30;;;26.00;40.80;;;;;;5032127;28;20464;-45
2022/06/21 13:48:57;;;;;;;6.63;2.30;;;26.10;40.30;;;;;;5061328;28;20450;-45
2022/06/21 13:51:33;;;;;;;2.83;2.60;;;26.10;40.40;;;;;;5064216;28;21120;-45